UAL1709 KIAD-KBOS
Flight info
| Callsign | UAL1709 |
|---|---|
| Flight time | 1h 11m |
| Altitude | 37000 |
| Route | JCOBY4 SWANN BROSS Q419 JFK ROBUC3 |
| Aircraft | B739/M-SDE2E3FGHIRWXY/LB1 |
Departure
| Time | 2026-05-08 01:48 |
|---|---|
| Airport | Washington Dulles International Airport (KIAD) |
Arrival
| Time | 2026-05-08 02:59 |
|---|---|
| Airport | Boston Logan International Airport (KBOS) |
| Time | Latitude | Longitude | Altitude | Speed | Heading |
|---|---|---|---|---|---|
| 2026-05-08 01:22 | 38.94592 | -77.45011 | 291 ft | 0 kts | 176° |
| 2026-05-08 01:37 | 38.94600 | -77.45012 | 294 ft | 4 kts | 170° |
| 2026-05-08 01:37 | 38.94622 | -77.45026 | 295 ft | 4 kts | 149° |
| 2026-05-08 01:37 | 38.94642 | -77.45033 | 295 ft | 4 kts | 187° |
| 2026-05-08 01:37 | 38.94659 | -77.45020 | 295 ft | 4 kts | 262° |
| 2026-05-08 01:38 | 38.94660 | -77.44988 | 291 ft | 4 kts | 271° |
| 2026-05-08 01:38 | 38.94659 | -77.44980 | 291 ft | 0 kts | 271° |
| 2026-05-08 01:42 | 38.94659 | -77.44981 | 291 ft | 1 kts | 271° |
| 2026-05-08 01:42 | 38.94660 | -77.45006 | 295 ft | 4 kts | 271° |
| 2026-05-08 01:42 | 38.94660 | -77.45043 | 291 ft | 5 kts | 270° |
| 2026-05-08 01:43 | 38.94661 | -77.45136 | 295 ft | 16 kts | 270° |
| 2026-05-08 01:43 | 38.94664 | -77.45279 | 291 ft | 16 kts | 271° |
| 2026-05-08 01:43 | 38.94666 | -77.45417 | 295 ft | 15 kts | 271° |
| 2026-05-08 01:43 | 38.94667 | -77.45492 | 291 ft | 0 kts | 271° |
| 2026-05-08 01:44 | 38.94667 | -77.45494 | 291 ft | 3 kts | 271° |
| 2026-05-08 01:44 | 38.94632 | -77.45597 | 291 ft | 17 kts | 207° |
| 2026-05-08 01:44 | 38.94517 | -77.45610 | 293 ft | 16 kts | 180° |
| 2026-05-08 01:44 | 38.94375 | -77.45612 | 294 ft | 26 kts | 180° |
| 2026-05-08 01:45 | 38.94201 | -77.45615 | 292 ft | 24 kts | 181° |
| 2026-05-08 01:45 | 38.94035 | -77.45616 | 294 ft | 26 kts | 180° |
| 2026-05-08 01:45 | 38.93848 | -77.45618 | 296 ft | 27 kts | 181° |
| 2026-05-08 01:45 | 38.93679 | -77.45563 | 292 ft | 25 kts | 136° |
| 2026-05-08 01:46 | 38.93537 | -77.45519 | 293 ft | 22 kts | 199° |
| 2026-05-08 01:46 | 38.93484 | -77.45545 | 291 ft | 0 kts | 200° |
| 2026-05-08 01:46 | 38.93445 | -77.45564 | 295 ft | 11 kts | 200° |
| 2026-05-08 01:47 | 38.93380 | -77.45626 | 291 ft | 6 kts | 261° |
| 2026-05-08 01:47 | 38.93483 | -77.46017 | 295 ft | 90 kts | 290° |
| 2026-05-08 01:47 | 38.93786 | -77.47082 | 303 ft | 161 kts | 287° |
| 2026-05-08 01:48 | 38.94667 | -77.50076 | 1629 ft | 192 kts | 289° |
| 2026-05-08 01:48 | 38.95222 | -77.51671 | 2499 ft | 196 kts | 296° |
| 2026-05-08 01:48 | 38.95880 | -77.53279 | 3038 ft | 212 kts | 295° |
| 2026-05-08 01:48 | 38.96524 | -77.55100 | 3205 ft | 238 kts | 290° |
| 2026-05-08 01:49 | 38.97142 | -77.57102 | 3200 ft | 242 kts | 291° |
| 2026-05-08 01:49 | 38.97762 | -77.59092 | 3179 ft | 239 kts | 292° |
| 2026-05-08 01:49 | 38.98362 | -77.61066 | 3208 ft | 235 kts | 291° |
| 2026-05-08 01:49 | 38.98947 | -77.63027 | 3212 ft | 235 kts | 291° |
| 2026-05-08 01:50 | 38.99534 | -77.64988 | 3240 ft | 238 kts | 291° |
| 2026-05-08 01:50 | 39.00153 | -77.67044 | 3521 ft | 255 kts | 293° |
| 2026-05-08 01:50 | 39.01189 | -77.68876 | 4352 ft | 257 kts | 326° |
| 2026-05-08 01:50 | 39.02866 | -77.69566 | 5354 ft | 258 kts | 359° |
| 2026-05-08 01:51 | 39.04593 | -77.68880 | 6234 ft | 269 kts | 32° |
| 2026-05-08 01:51 | 39.05910 | -77.67134 | 7077 ft | 278 kts | 50° |
| 2026-05-08 01:51 | 39.06887 | -77.64938 | 7834 ft | 289 kts | 65° |
| 2026-05-08 01:51 | 39.07568 | -77.62487 | 8658 ft | 294 kts | 69° |
| 2026-05-08 01:52 | 39.08189 | -77.59946 | 9431 ft | 300 kts | 70° |
| 2026-05-08 01:52 | 39.08829 | -77.57356 | 10086 ft | 310 kts | 70° |
| 2026-05-08 01:52 | 39.09525 | -77.54627 | 10442 ft | 334 kts | 70° |
| 2026-05-08 01:52 | 39.10267 | -77.51748 | 10820 ft | 350 kts | 70° |
| 2026-05-08 01:53 | 39.11057 | -77.48728 | 11425 ft | 361 kts | 70° |
| 2026-05-08 01:53 | 39.11880 | -77.45642 | 12078 ft | 368 kts | 70° |
| 2026-05-08 01:53 | 39.12723 | -77.42504 | 12693 ft | 374 kts | 70° |
| 2026-05-08 01:53 | 39.13584 | -77.39302 | 13250 ft | 381 kts | 70° |
| 2026-05-08 01:54 | 39.14458 | -77.36044 | 13811 ft | 387 kts | 71° |
| 2026-05-08 01:54 | 39.15207 | -77.32694 | 14381 ft | 392 kts | 81° |
| 2026-05-08 01:54 | 39.15439 | -77.29193 | 14962 ft | 394 kts | 94° |
| 2026-05-08 01:54 | 39.15157 | -77.25676 | 15501 ft | 395 kts | 106° |
| 2026-05-08 01:55 | 39.14543 | -77.22218 | 16050 ft | 398 kts | 108° |
| 2026-05-08 01:55 | 39.13901 | -77.18715 | 16589 ft | 403 kts | 108° |
| 2026-05-08 01:55 | 39.13282 | -77.15177 | 17167 ft | 407 kts | 107° |
| 2026-05-08 01:55 | 39.12707 | -77.11602 | 17734 ft | 410 kts | 107° |
| 2026-05-08 01:56 | 39.12139 | -77.07971 | 18229 ft | 415 kts | 107° |
| 2026-05-08 01:56 | 39.11561 | -77.04309 | 18718 ft | 420 kts | 107° |
| 2026-05-08 01:56 | 39.10977 | -77.00608 | 19203 ft | 425 kts | 105° |
| 2026-05-08 01:56 | 39.10651 | -76.96787 | 19656 ft | 435 kts | 94° |
| 2026-05-08 01:57 | 39.10722 | -76.92880 | 20146 ft | 439 kts | 90° |
| 2026-05-08 01:57 | 39.10859 | -76.88933 | 20581 ft | 444 kts | 90° |
| 2026-05-08 01:57 | 39.11005 | -76.84950 | 21030 ft | 447 kts | 90° |
| 2026-05-08 01:57 | 39.11138 | -76.80938 | 21487 ft | 450 kts | 90° |
| 2026-05-08 01:58 | 39.11255 | -76.76903 | 21908 ft | 453 kts | 90° |
| 2026-05-08 01:58 | 39.11360 | -76.72824 | 22301 ft | 457 kts | 91° |
| 2026-05-08 01:58 | 39.11458 | -76.68715 | 22693 ft | 461 kts | 91° |
| 2026-05-08 01:58 | 39.11556 | -76.64573 | 23081 ft | 464 kts | 91° |
| 2026-05-08 01:59 | 39.11652 | -76.60399 | 23457 ft | 468 kts | 91° |
| 2026-05-08 01:59 | 39.11748 | -76.56201 | 23822 ft | 471 kts | 90° |
| 2026-05-08 01:59 | 39.11856 | -76.52025 | 24204 ft | 474 kts | 89° |
| 2026-05-08 01:59 | 39.12191 | -76.47776 | 24554 ft | 479 kts | 83° |
| 2026-05-08 02:00 | 39.12693 | -76.43520 | 24876 ft | 483 kts | 81° |
| 2026-05-08 02:00 | 39.13243 | -76.39235 | 25213 ft | 486 kts | 81° |
| 2026-05-08 02:00 | 39.13782 | -76.34927 | 25561 ft | 489 kts | 82° |
| 2026-05-08 02:00 | 39.14294 | -76.30575 | 25870 ft | 492 kts | 83° |
| 2026-05-08 02:01 | 39.14786 | -76.26201 | 26157 ft | 496 kts | 83° |
| 2026-05-08 02:01 | 39.15274 | -76.21784 | 26472 ft | 498 kts | 83° |
| 2026-05-08 02:01 | 39.15773 | -76.17355 | 26812 ft | 501 kts | 82° |
| 2026-05-08 02:01 | 39.16283 | -76.12913 | 27122 ft | 503 kts | 82° |
| 2026-05-08 02:02 | 39.16799 | -76.08431 | 27385 ft | 507 kts | 82° |
| 2026-05-08 02:02 | 39.17316 | -76.03920 | 27653 ft | 509 kts | 82° |
| 2026-05-08 02:02 | 39.17831 | -75.99393 | 27913 ft | 513 kts | 83° |
| 2026-05-08 02:02 | 39.18369 | -75.94833 | 28143 ft | 517 kts | 79° |
| 2026-05-08 02:03 | 39.19425 | -75.90401 | 28395 ft | 518 kts | 63° |
| 2026-05-08 02:03 | 39.21196 | -75.86392 | 28668 ft | 512 kts | 49° |
| 2026-05-08 02:03 | 39.23512 | -75.82949 | 28906 ft | 504 kts | 34° |
| 2026-05-08 02:03 | 39.26183 | -75.80058 | 29151 ft | 502 kts | 31° |
| 2026-05-08 02:04 | 39.28909 | -75.77198 | 29417 ft | 504 kts | 31° |
| 2026-05-08 02:04 | 39.31626 | -75.74319 | 29662 ft | 507 kts | 32° |
| 2026-05-08 02:04 | 39.34331 | -75.71404 | 29908 ft | 509 kts | 32° |
| 2026-05-08 02:04 | 39.37044 | -75.68439 | 30128 ft | 512 kts | 32° |
| 2026-05-08 02:05 | 39.39760 | -75.65446 | 30327 ft | 514 kts | 32° |
| 2026-05-08 02:05 | 39.42452 | -75.62473 | 30540 ft | 517 kts | 32° |
| 2026-05-08 02:05 | 39.45223 | -75.59416 | 30790 ft | 517 kts | 32° |
| 2026-05-08 02:05 | 39.47965 | -75.56401 | 31052 ft | 518 kts | 32° |
| 2026-05-08 02:06 | 39.50682 | -75.53418 | 31301 ft | 519 kts | 32° |
| 2026-05-08 02:06 | 39.53449 | -75.50378 | 31469 ft | 523 kts | 32° |
| 2026-05-08 02:06 | 39.56224 | -75.47321 | 31659 ft | 524 kts | 32° |
| 2026-05-08 02:06 | 39.59001 | -75.44255 | 31911 ft | 525 kts | 32° |
| 2026-05-08 02:07 | 39.61784 | -75.41181 | 32169 ft | 525 kts | 32° |
| 2026-05-08 02:07 | 39.64565 | -75.38108 | 32453 ft | 525 kts | 32° |
| 2026-05-08 02:07 | 39.67337 | -75.35043 | 32766 ft | 524 kts | 32° |
| 2026-05-08 02:07 | 39.70110 | -75.31972 | 33080 ft | 522 kts | 32° |
| 2026-05-08 02:08 | 39.72875 | -75.28911 | 33335 ft | 523 kts | 32° |
| 2026-05-08 02:08 | 39.75645 | -75.25841 | 33551 ft | 524 kts | 32° |
| 2026-05-08 02:08 | 39.78412 | -75.22761 | 33770 ft | 525 kts | 33° |
| 2026-05-08 02:08 | 39.81047 | -75.19429 | 34033 ft | 533 kts | 40° |
| 2026-05-08 02:09 | 39.83499 | -75.15795 | 34330 ft | 534 kts | 43° |
| 2026-05-08 02:09 | 39.85887 | -75.12093 | 34597 ft | 535 kts | 43° |
| 2026-05-08 02:09 | 39.88276 | -75.08384 | 34836 ft | 535 kts | 43° |
| 2026-05-08 02:09 | 39.90692 | -75.04696 | 35057 ft | 535 kts | 42° |
| 2026-05-08 02:10 | 39.93129 | -75.01036 | 35336 ft | 533 kts | 42° |
| 2026-05-08 02:10 | 39.95531 | -74.97446 | 35588 ft | 533 kts | 42° |
| 2026-05-08 02:10 | 39.97905 | -74.93713 | 35749 ft | 538 kts | 48° |
| 2026-05-08 02:10 | 40.00055 | -74.89703 | 35961 ft | 541 kts | 52° |
| 2026-05-08 02:11 | 40.02102 | -74.85594 | 36281 ft | 538 kts | 53° |
| 2026-05-08 02:11 | 40.04099 | -74.81491 | 36717 ft | 533 kts | 53° |
| 2026-05-08 02:11 | 40.06096 | -74.77424 | 36906 ft | 530 kts | 53° |
| 2026-05-08 02:11 | 40.08106 | -74.73393 | 36881 ft | 528 kts | 52° |
| 2026-05-08 02:12 | 40.12144 | -74.65425 | 36898 ft | 525 kts | 52° |
| 2026-05-08 02:12 | 40.16184 | -74.57466 | 36898 ft | 526 kts | 52° |
| 2026-05-08 02:13 | 40.20388 | -74.49657 | 36885 ft | 521 kts | 43° |
| 2026-05-08 02:13 | 40.22919 | -74.46328 | 36893 ft | 512 kts | 32° |
| 2026-05-08 02:13 | 40.25676 | -74.43403 | 36898 ft | 510 kts | 31° |
| 2026-05-08 02:14 | 40.30813 | -74.38101 | 36891 ft | 511 kts | 31° |
| 2026-05-08 02:14 | 40.34941 | -74.33774 | 36887 ft | 512 kts | 31° |
| 2026-05-08 02:15 | 40.40469 | -74.27866 | 36884 ft | 513 kts | 32° |
| 2026-05-08 02:15 | 40.46005 | -74.21907 | 36634 ft | 517 kts | 32° |
| 2026-05-08 02:16 | 40.48791 | -74.18910 | 36221 ft | 517 kts | 32° |
| 2026-05-08 02:16 | 40.51528 | -74.15868 | 35735 ft | 517 kts | 38° |
| 2026-05-08 02:16 | 40.53917 | -74.12310 | 35261 ft | 521 kts | 50° |
| 2026-05-08 02:16 | 40.55851 | -74.08276 | 34784 ft | 522 kts | 60° |
| 2026-05-08 02:17 | 40.57279 | -74.03903 | 34314 ft | 521 kts | 72° |
| 2026-05-08 02:17 | 40.58290 | -73.99412 | 33869 ft | 516 kts | 73° |
| 2026-05-08 02:17 | 40.59251 | -73.94870 | 33374 ft | 513 kts | 74° |
| 2026-05-08 02:17 | 40.60232 | -73.90368 | 32901 ft | 510 kts | 73° |
| 2026-05-08 02:18 | 40.61250 | -73.85911 | 32420 ft | 507 kts | 73° |
| 2026-05-08 02:18 | 40.62331 | -73.81509 | 31930 ft | 504 kts | 67° |
| 2026-05-08 02:18 | 40.63816 | -73.77361 | 31464 ft | 498 kts | 57° |
| 2026-05-08 02:18 | 40.65668 | -73.73544 | 30995 ft | 491 kts | 48° |
| 2026-05-08 02:19 | 40.67856 | -73.70170 | 30546 ft | 483 kts | 42° |
| 2026-05-08 02:19 | 40.70131 | -73.66924 | 30078 ft | 480 kts | 41° |
| 2026-05-08 02:19 | 40.72394 | -73.63716 | 29617 ft | 477 kts | 42° |
| 2026-05-08 02:19 | 40.74635 | -73.60506 | 29154 ft | 474 kts | 43° |
| 2026-05-08 02:20 | 40.76850 | -73.57294 | 28682 ft | 472 kts | 43° |
| 2026-05-08 02:20 | 40.79042 | -73.54087 | 28223 ft | 470 kts | 44° |
| 2026-05-08 02:20 | 40.81223 | -73.50882 | 27763 ft | 467 kts | 44° |
| 2026-05-08 02:20 | 40.83370 | -73.47719 | 27396 ft | 462 kts | 44° |
| 2026-05-08 02:21 | 40.85524 | -73.44550 | 26882 ft | 461 kts | 44° |
| 2026-05-08 02:21 | 40.87646 | -73.41422 | 26637 ft | 453 kts | 44° |
| 2026-05-08 02:21 | 40.89726 | -73.38350 | 26393 ft | 445 kts | 44° |
| 2026-05-08 02:21 | 40.91770 | -73.35327 | 26160 ft | 437 kts | 45° |
| 2026-05-08 02:22 | 40.93789 | -73.32341 | 25934 ft | 432 kts | 44° |
| 2026-05-08 02:22 | 40.95784 | -73.29389 | 25726 ft | 432 kts | 45° |
| 2026-05-08 02:22 | 40.97801 | -73.26405 | 25522 ft | 437 kts | 45° |
| 2026-05-08 02:22 | 40.99841 | -73.23384 | 25204 ft | 445 kts | 45° |
| 2026-05-08 02:23 | 41.01940 | -73.20275 | 25087 ft | 462 kts | 45° |
| 2026-05-08 02:23 | 41.04110 | -73.17053 | 24828 ft | 471 kts | 45° |
| 2026-05-08 02:23 | 41.06262 | -73.13849 | 24571 ft | 472 kts | 46° |
| 2026-05-08 02:23 | 41.08435 | -73.10606 | 24299 ft | 468 kts | 46° |
| 2026-05-08 02:24 | 41.10592 | -73.07383 | 24057 ft | 466 kts | 46° |
| 2026-05-08 02:24 | 41.12736 | -73.04179 | 23818 ft | 463 kts | 46° |
| 2026-05-08 02:24 | 41.14866 | -73.00995 | 23576 ft | 461 kts | 46° |
| 2026-05-08 02:24 | 41.16989 | -72.97819 | 23341 ft | 459 kts | 46° |
| 2026-05-08 02:25 | 41.19102 | -72.94657 | 23106 ft | 457 kts | 46° |
| 2026-05-08 02:25 | 41.21124 | -72.91393 | 22865 ft | 457 kts | 54° |
| 2026-05-08 02:25 | 41.22736 | -72.87783 | 22771 ft | 452 kts | 63° |
| 2026-05-08 02:25 | 41.24151 | -72.84056 | 22679 ft | 454 kts | 64° |
| 2026-05-08 02:26 | 41.25551 | -72.80282 | 22576 ft | 457 kts | 65° |
| 2026-05-08 02:26 | 41.26960 | -72.76485 | 22464 ft | 458 kts | 64° |
| 2026-05-08 02:26 | 41.28378 | -72.72695 | 22355 ft | 457 kts | 64° |
| 2026-05-08 02:26 | 41.29798 | -72.68930 | 22244 ft | 456 kts | 64° |
| 2026-05-08 02:27 | 41.31224 | -72.65171 | 22139 ft | 454 kts | 64° |
| 2026-05-08 02:27 | 41.32650 | -72.61421 | 22033 ft | 453 kts | 64° |
| 2026-05-08 02:27 | 41.34072 | -72.57682 | 21926 ft | 453 kts | 64° |
| 2026-05-08 02:27 | 41.35491 | -72.53947 | 21820 ft | 452 kts | 64° |
| 2026-05-08 02:28 | 41.36906 | -72.50218 | 21719 ft | 451 kts | 64° |
| 2026-05-08 02:28 | 41.38317 | -72.46492 | 21616 ft | 451 kts | 64° |
| 2026-05-08 02:28 | 41.39728 | -72.42757 | 21506 ft | 450 kts | 64° |
| 2026-05-08 02:28 | 41.41136 | -72.39027 | 21402 ft | 450 kts | 64° |
| 2026-05-08 02:29 | 41.42539 | -72.35304 | 21304 ft | 449 kts | 64° |
| 2026-05-08 02:29 | 41.43940 | -72.31582 | 21190 ft | 449 kts | 64° |
| 2026-05-08 02:29 | 41.45339 | -72.27863 | 21092 ft | 449 kts | 64° |
| 2026-05-08 02:29 | 41.46736 | -72.24144 | 20982 ft | 448 kts | 64° |
| 2026-05-08 02:30 | 41.48128 | -72.20430 | 20800 ft | 449 kts | 64° |
| 2026-05-08 02:30 | 41.49527 | -72.16646 | 19999 ft | 460 kts | 65° |
| 2026-05-08 02:30 | 41.50907 | -72.12866 | 19643 ft | 453 kts | 65° |
| 2026-05-08 02:30 | 41.52279 | -72.09098 | 19545 ft | 439 kts | 65° |
| 2026-05-08 02:31 | 41.53606 | -72.05459 | 19256 ft | 433 kts | 65° |
| 2026-05-08 02:31 | 41.54917 | -72.01862 | 18848 ft | 430 kts | 65° |
| 2026-05-08 02:31 | 41.56182 | -71.98250 | 18361 ft | 429 kts | 69° |
| 2026-05-08 02:31 | 41.57299 | -71.94561 | 17902 ft | 427 kts | 71° |
| 2026-05-08 02:32 | 41.58365 | -71.90872 | 17533 ft | 423 kts | 70° |
| 2026-05-08 02:32 | 41.59429 | -71.87244 | 17229 ft | 417 kts | 70° |
| 2026-05-08 02:32 | 41.60490 | -71.83652 | 16860 ft | 414 kts | 70° |
| 2026-05-08 02:32 | 41.61543 | -71.80093 | 16504 ft | 410 kts | 70° |
| 2026-05-08 02:33 | 41.62584 | -71.76572 | 16142 ft | 406 kts | 69° |
| 2026-05-08 02:33 | 41.63601 | -71.73125 | 15798 ft | 402 kts | 69° |
| 2026-05-08 02:33 | 41.64619 | -71.69668 | 15471 ft | 398 kts | 69° |
| 2026-05-08 02:33 | 41.65627 | -71.66236 | 15101 ft | 394 kts | 69° |
| 2026-05-08 02:34 | 41.66622 | -71.62841 | 14784 ft | 390 kts | 69° |
| 2026-05-08 02:34 | 41.67605 | -71.59497 | 14545 ft | 382 kts | 69° |
| 2026-05-08 02:34 | 41.68566 | -71.56229 | 14329 ft | 373 kts | 68° |
| 2026-05-08 02:34 | 41.69503 | -71.53030 | 14118 ft | 367 kts | 69° |
| 2026-05-08 02:35 | 41.70425 | -71.49864 | 13936 ft | 363 kts | 69° |
| 2026-05-08 02:35 | 41.71340 | -71.46719 | 13751 ft | 363 kts | 68° |
| 2026-05-08 02:35 | 41.72264 | -71.43557 | 13563 ft | 366 kts | 67° |
| 2026-05-08 02:35 | 41.73376 | -71.40498 | 13367 ft | 365 kts | 59° |
| 2026-05-08 02:36 | 41.74669 | -71.37581 | 13175 ft | 363 kts | 57° |
| 2026-05-08 02:36 | 41.75969 | -71.34694 | 12976 ft | 361 kts | 57° |
| 2026-05-08 02:36 | 41.77220 | -71.31840 | 12770 ft | 359 kts | 58° |
| 2026-05-08 02:36 | 41.78461 | -71.28952 | 12583 ft | 356 kts | 58° |
| 2026-05-08 02:37 | 41.79687 | -71.26075 | 12393 ft | 354 kts | 58° |
| 2026-05-08 02:37 | 41.80905 | -71.23212 | 12206 ft | 353 kts | 58° |
| 2026-05-08 02:37 | 41.82117 | -71.20359 | 12008 ft | 351 kts | 58° |
| 2026-05-08 02:37 | 41.83322 | -71.17525 | 11816 ft | 349 kts | 58° |
| 2026-05-08 02:38 | 41.84519 | -71.14707 | 11630 ft | 346 kts | 58° |
| 2026-05-08 02:38 | 41.85698 | -71.11929 | 11432 ft | 339 kts | 58° |
| 2026-05-08 02:38 | 41.86861 | -71.09223 | 11246 ft | 331 kts | 57° |
| 2026-05-08 02:38 | 41.88006 | -71.06576 | 11075 ft | 324 kts | 57° |
| 2026-05-08 02:39 | 41.89125 | -71.03991 | 10897 ft | 318 kts | 57° |
| 2026-05-08 02:39 | 41.90232 | -71.01431 | 10736 ft | 316 kts | 57° |
| 2026-05-08 02:39 | 41.91329 | -70.98892 | 10573 ft | 314 kts | 57° |
| 2026-05-08 02:39 | 41.92421 | -70.96363 | 10408 ft | 313 kts | 57° |
| 2026-05-08 02:40 | 41.93510 | -70.93842 | 10243 ft | 311 kts | 57° |
| 2026-05-08 02:40 | 41.94589 | -70.91330 | 10081 ft | 308 kts | 57° |
| 2026-05-08 02:40 | 41.95646 | -70.88868 | 9892 ft | 301 kts | 57° |
| 2026-05-08 02:40 | 41.96679 | -70.86461 | 9746 ft | 294 kts | 57° |
| 2026-05-08 02:41 | 41.97695 | -70.84093 | 9594 ft | 290 kts | 57° |
| 2026-05-08 02:41 | 41.98701 | -70.81751 | 9459 ft | 289 kts | 57° |
| 2026-05-08 02:41 | 41.99706 | -70.79409 | 9313 ft | 290 kts | 57° |
| 2026-05-08 02:41 | 42.00714 | -70.77054 | 9163 ft | 291 kts | 57° |
| 2026-05-08 02:42 | 42.01857 | -70.74837 | 8997 ft | 287 kts | 46° |
| 2026-05-08 02:42 | 42.03196 | -70.72873 | 8853 ft | 284 kts | 43° |
| 2026-05-08 02:42 | 42.04550 | -70.70951 | 8697 ft | 282 kts | 43° |
| 2026-05-08 02:42 | 42.05880 | -70.69010 | 8538 ft | 282 kts | 44° |
| 2026-05-08 02:43 | 42.07197 | -70.67063 | 8391 ft | 280 kts | 44° |
| 2026-05-08 02:43 | 42.08487 | -70.65139 | 8234 ft | 273 kts | 44° |
| 2026-05-08 02:43 | 42.09754 | -70.63284 | 8082 ft | 265 kts | 38° |
| 2026-05-08 02:43 | 42.11304 | -70.62139 | 7904 ft | 249 kts | 8° |
| 2026-05-08 02:44 | 42.12987 | -70.62012 | 7703 ft | 238 kts | 350° |
| 2026-05-08 02:44 | 42.14610 | -70.62325 | 7486 ft | 234 kts | 347° |
| 2026-05-08 02:44 | 42.16218 | -70.62523 | 7326 ft | 232 kts | 4° |
| 2026-05-08 02:44 | 42.17773 | -70.62010 | 7174 ft | 228 kts | 11° |
| 2026-05-08 02:45 | 42.19296 | -70.61469 | 6985 ft | 225 kts | 10° |
| 2026-05-08 02:45 | 42.20797 | -70.60959 | 6820 ft | 225 kts | 9° |
| 2026-05-08 02:45 | 42.22319 | -70.60454 | 6647 ft | 225 kts | 9° |
| 2026-05-08 02:45 | 42.23843 | -70.59955 | 6460 ft | 225 kts | 9° |
| 2026-05-08 02:46 | 42.25362 | -70.59466 | 6277 ft | 224 kts | 9° |
| 2026-05-08 02:46 | 42.26878 | -70.58989 | 6091 ft | 224 kts | 10° |
| 2026-05-08 02:46 | 42.28391 | -70.58504 | 5920 ft | 223 kts | 9° |
| 2026-05-08 02:46 | 42.29896 | -70.58023 | 5774 ft | 220 kts | 9° |
| 2026-05-08 02:47 | 42.31390 | -70.57550 | 5584 ft | 224 kts | 9° |
| 2026-05-08 02:47 | 42.32950 | -70.57071 | 5366 ft | 233 kts | 5° |
| 2026-05-08 02:47 | 42.34517 | -70.57268 | 5165 ft | 227 kts | 332° |
| 2026-05-08 02:47 | 42.35773 | -70.58521 | 5026 ft | 224 kts | 313° |
| 2026-05-08 02:48 | 42.36958 | -70.59894 | 4833 ft | 226 kts | 332° |
| 2026-05-08 02:48 | 42.38392 | -70.60707 | 4666 ft | 221 kts | 335° |
| 2026-05-08 02:48 | 42.39749 | -70.61601 | 4494 ft | 214 kts | 320° |
| 2026-05-08 02:48 | 42.40569 | -70.63182 | 4344 ft | 206 kts | 286° |
| 2026-05-08 02:49 | 42.40546 | -70.65081 | 4103 ft | 208 kts | 254° |
| 2026-05-08 02:49 | 42.39854 | -70.66789 | 3999 ft | 205 kts | 229° |
| 2026-05-08 02:49 | 42.38649 | -70.67772 | 4018 ft | 204 kts | 204° |
| 2026-05-08 02:49 | 42.37302 | -70.68347 | 4031 ft | 207 kts | 201° |
| 2026-05-08 02:50 | 42.35898 | -70.68888 | 4019 ft | 211 kts | 200° |
| 2026-05-08 02:50 | 42.34485 | -70.69424 | 4019 ft | 213 kts | 200° |
| 2026-05-08 02:50 | 42.33038 | -70.69976 | 3996 ft | 218 kts | 200° |
| 2026-05-08 02:50 | 42.31573 | -70.70536 | 3979 ft | 218 kts | 200° |
| 2026-05-08 02:51 | 42.30114 | -70.71097 | 3972 ft | 219 kts | 200° |
| 2026-05-08 02:51 | 42.28647 | -70.71659 | 3983 ft | 220 kts | 200° |
| 2026-05-08 02:51 | 42.27171 | -70.72230 | 4004 ft | 221 kts | 200° |
| 2026-05-08 02:51 | 42.25688 | -70.72801 | 4017 ft | 221 kts | 200° |
| 2026-05-08 02:52 | 42.24219 | -70.73368 | 4001 ft | 216 kts | 200° |
| 2026-05-08 02:52 | 42.22866 | -70.74040 | 3986 ft | 197 kts | 220° |
| 2026-05-08 02:52 | 42.21988 | -70.75261 | 3999 ft | 170 kts | 241° |
| 2026-05-08 02:52 | 42.21510 | -70.76615 | 4006 ft | 152 kts | 259° |
| 2026-05-08 02:53 | 42.21379 | -70.77959 | 3868 ft | 145 kts | 275° |
| 2026-05-08 02:53 | 42.21516 | -70.79307 | 3916 ft | 141 kts | 285° |
| 2026-05-08 02:53 | 42.21832 | -70.80515 | 3614 ft | 134 kts | 297° |
| 2026-05-08 02:53 | 42.22409 | -70.81422 | 3547 ft | 119 kts | 313° |
| 2026-05-08 02:54 | 42.23043 | -70.82344 | 3434 ft | 144 kts | 311° |
| 2026-05-08 02:54 | 42.23724 | -70.83310 | 3239 ft | 140 kts | 312° |
| 2026-05-08 02:54 | 42.24398 | -70.84240 | 3046 ft | 136 kts | 313° |
| 2026-05-08 02:54 | 42.25067 | -70.85150 | 2875 ft | 137 kts | 313° |
| 2026-05-08 02:55 | 42.25742 | -70.86063 | 2693 ft | 138 kts | 313° |
| 2026-05-08 02:55 | 42.27079 | -70.87867 | 2332 ft | 137 kts | 313° |
| 2026-05-08 02:55 | 42.27753 | -70.88771 | 2151 ft | 136 kts | 313° |
| 2026-05-08 02:56 | 42.28424 | -70.89676 | 1971 ft | 136 kts | 312° |
| 2026-05-08 02:56 | 42.29097 | -70.90585 | 1787 ft | 137 kts | 312° |
| 2026-05-08 02:56 | 42.29781 | -70.91504 | 1610 ft | 137 kts | 312° |
| 2026-05-08 02:56 | 42.30444 | -70.92398 | 1427 ft | 137 kts | 312° |
| 2026-05-08 02:57 | 42.31120 | -70.93306 | 1253 ft | 138 kts | 312° |
| 2026-05-08 02:57 | 42.31795 | -70.94217 | 1058 ft | 137 kts | 311° |
| 2026-05-08 02:57 | 42.32465 | -70.95119 | 883 ft | 137 kts | 312° |
| 2026-05-08 02:57 | 42.33143 | -70.96032 | 693 ft | 137 kts | 312° |
| 2026-05-08 02:58 | 42.33819 | -70.96938 | 513 ft | 137 kts | 313° |
| 2026-05-08 02:58 | 42.34495 | -70.97847 | 334 ft | 137 kts | 313° |
| 2026-05-08 02:58 | 42.35174 | -70.98761 | 151 ft | 139 kts | 313° |
| 2026-05-08 02:58 | 42.35853 | -70.99675 | 27 ft | 130 kts | 314° |
| 2026-05-08 02:59 | 42.36362 | -71.00364 | 27 ft | 73 kts | 314° |
| 2026-05-08 02:59 | 42.36569 | -71.00647 | 28 ft | 13 kts | 314° |
| 2026-05-08 02:59 | 42.36641 | -71.00759 | 25 ft | 16 kts | 291° |
| 2026-05-08 02:59 | 42.36578 | -71.00865 | 27 ft | 16 kts | 203° |
| 2026-05-08 03:00 | 42.36497 | -71.00949 | 25 ft | 13 kts | 274° |
| 2026-05-08 03:00 | 42.36524 | -71.01063 | 27 ft | 13 kts | 291° |
| 2026-05-08 03:00 | 42.36556 | -71.01173 | 29 ft | 12 kts | 291° |
| 2026-05-08 03:00 | 42.36578 | -71.01282 | 26 ft | 12 kts | 254° |
| 2026-05-08 03:01 | 42.36533 | -71.01326 | 25 ft | 12 kts | 205° |
| 2026-05-08 03:01 | 42.36417 | -71.01391 | 26 ft | 27 kts | 199° |
| 2026-05-08 03:01 | 42.36223 | -71.01486 | 27 ft | 24 kts | 200° |
| 2026-05-08 03:01 | 42.36117 | -71.01547 | 26 ft | 6 kts | 228° |
| 2026-05-08 03:02 | 42.36113 | -71.01601 | 24 ft | 6 kts | 282° |
| 2026-05-08 03:02 | 42.36124 | -71.01654 | 25 ft | 3 kts | 289° |
| 2026-05-08 03:02 | 42.36125 | -71.01657 | 28 ft | 2 kts | 290° |
| 2026-05-08 03:02 | 42.36126 | -71.01659 | 24 ft | 0 kts | 290° |